sensor_id;sensor_type;location;lat;lon;timestamp;P1;durP1;ratioP1;P2;durP2;ratioP2
35715;SDS011;21840;44.920;8.616;2023-03-02T00:02:03;22.25;;;16.20;;
35715;SDS011;21840;44.920;8.616;2023-03-02T00:07:24;26.48;;;17.42;;
35715;SDS011;21840;44.920;8.616;2023-03-02T00:09:55;23.55;;;16.80;;
35715;SDS011;21840;44.920;8.616;2023-03-02T00:12:21;21.45;;;16.05;;
35715;SDS011;21840;44.920;8.616;2023-03-02T00:14:47;24.35;;;17.45;;
35715;SDS011;21840;44.920;8.616;2023-03-02T00:17:13;27.50;;;18.48;;
35715;SDS011;21840;44.920;8.616;2023-03-02T00:19:38;25.95;;;17.08;;
35715;SDS011;21840;44.920;8.616;2023-03-02T00:22:04;28.60;;;19.20;;
35715;SDS011;21840;44.920;8.616;2023-03-02T00:24:29;28.35;;;19.60;;
35715;SDS011;21840;44.920;8.616;2023-03-02T00:26:55;28.70;;;19.92;;
35715;SDS011;21840;44.920;8.616;2023-03-02T00:29:21;31.52;;;20.23;;
35715;SDS011;21840;44.920;8.616;2023-03-02T00:31:46;30.60;;;20.23;;
35715;SDS011;21840;44.920;8.616;2023-03-02T00:34:11;31.00;;;20.13;;
35715;SDS011;21840;44.920;8.616;2023-03-02T00:36:37;32.47;;;21.10;;
35715;SDS011;21840;44.920;8.616;2023-03-02T00:39:02;34.38;;;22.95;;
35715;SDS011;21840;44.920;8.616;2023-03-02T00:41:28;33.20;;;22.67;;
35715;SDS011;21840;44.920;8.616;2023-03-02T00:43:54;32.50;;;21.35;;
35715;SDS011;21840;44.920;8.616;2023-03-02T00:46:20;32.83;;;21.92;;
35715;SDS011;21840;44.920;8.616;2023-03-02T00:48:47;35.28;;;22.23;;
35715;SDS011;21840;44.920;8.616;2023-03-02T00:51:13;30.50;;;20.70;;
35715;SDS011;21840;44.920;8.616;2023-03-02T00:53:39;31.95;;;22.20;;
35715;SDS011;21840;44.920;8.616;2023-03-02T00:56:05;32.85;;;20.45;;
35715;SDS011;21840;44.920;8.616;2023-03-02T00:58:35;31.90;;;20.90;;
35715;SDS011;21840;44.920;8.616;2023-03-02T01:01:08;30.88;;;20.98;;
35715;SDS011;21840;44.920;8.616;2023-03-02T01:03:38;31.17;;;20.20;;
35715;SDS011;21840;44.920;8.616;2023-03-02T01:06:04;34.10;;;21.48;;
35715;SDS011;21840;44.920;8.616;2023-03-02T01:08:30;35.03;;;20.67;;
35715;SDS011;21840;44.920;8.616;2023-03-02T01:10:56;31.95;;;20.95;;
35715;SDS011;21840;44.920;8.616;2023-03-02T01:13:26;30.20;;;20.40;;
35715;SDS011;21840;44.920;8.616;2023-03-02T01:15:59;29.88;;;19.90;;
35715;SDS011;21840;44.920;8.616;2023-03-02T01:18:26;31.92;;;21.40;;
35715;SDS011;21840;44.920;8.616;2023-03-02T01:20:58;33.13;;;21.23;;
35715;SDS011;21840;44.920;8.616;2023-03-02T01:23:25;31.33;;;19.98;;
35715;SDS011;21840;44.920;8.616;2023-03-02T01:25:51;32.83;;;21.20;;
35715;SDS011;21840;44.920;8.616;2023-03-02T01:28:16;30.23;;;20.17;;
35715;SDS011;21840;44.920;8.616;2023-03-02T01:30:42;34.15;;;22.95;;
35715;SDS011;21840;44.920;8.616;2023-03-02T01:33:08;34.15;;;21.33;;
35715;SDS011;21840;44.920;8.616;2023-03-02T01:35:33;32.22;;;21.48;;
35715;SDS011;21840;44.920;8.616;2023-03-02T01:37:58;28.58;;;20.17;;
35715;SDS011;21840;44.920;8.616;2023-03-02T01:40:24;31.00;;;21.05;;
35715;SDS011;21840;44.920;8.616;2023-03-02T01:42:51;37.05;;;22.90;;
35715;SDS011;21840;44.920;8.616;2023-03-02T01:48:38;33.25;;;22.05;;
35715;SDS011;21840;44.920;8.616;2023-03-02T01:51:07;32.58;;;22.15;;
35715;SDS011;21840;44.920;8.616;2023-03-02T01:53:39;33.45;;;22.85;;
35715;SDS011;21840;44.920;8.616;2023-03-02T01:56:20;35.50;;;22.38;;
35715;SDS011;21840;44.920;8.616;2023-03-02T01:58:50;33.47;;;21.88;;
35715;SDS011;21840;44.920;8.616;2023-03-02T02:01:18;33.88;;;22.05;;
35715;SDS011;21840;44.920;8.616;2023-03-02T02:03:46;33.83;;;21.65;;
35715;SDS011;21840;44.920;8.616;2023-03-02T02:06:22;31.42;;;21.83;;
35715;SDS011;21840;44.920;8.616;2023-03-02T02:08:51;33.78;;;22.25;;
35715;SDS011;21840;44.920;8.616;2023-03-02T02:11:20;32.97;;;21.52;;
35715;SDS011;21840;44.920;8.616;2023-03-02T02:13:49;33.70;;;22.50;;
35715;SDS011;21840;44.920;8.616;2023-03-02T02:16:19;38.33;;;24.08;;
35715;SDS011;21840;44.920;8.616;2023-03-02T02:18:44;34.95;;;22.58;;
35715;SDS011;21840;44.920;8.616;2023-03-02T02:21:10;35.85;;;22.70;;
35715;SDS011;21840;44.920;8.616;2023-03-02T02:23:41;38.30;;;24.77;;
35715;SDS011;21840;44.920;8.616;2023-03-02T02:26:40;39.90;;;24.63;;
35715;SDS011;21840;44.920;8.616;2023-03-02T02:29:18;41.78;;;25.77;;
35715;SDS011;21840;44.920;8.616;2023-03-02T02:31:50;41.65;;;26.58;;
35715;SDS011;21840;44.920;8.616;2023-03-02T02:34:22;42.17;;;26.93;;
35715;SDS011;21840;44.920;8.616;2023-03-02T02:36:54;40.95;;;25.98;;
35715;SDS011;21840;44.920;8.616;2023-03-02T02:39:24;46.17;;;27.85;;
35715;SDS011;21840;44.920;8.616;2023-03-02T02:41:54;44.30;;;27.83;;
35715;SDS011;21840;44.920;8.616;2023-03-02T02:44:26;48.42;;;29.27;;
35715;SDS011;21840;44.920;8.616;2023-03-02T02:46:52;44.00;;;28.48;;
35715;SDS011;21840;44.920;8.616;2023-03-02T02:51:55;50.95;;;30.45;;
35715;SDS011;21840;44.920;8.616;2023-03-02T02:54:21;46.85;;;29.17;;
35715;SDS011;21840;44.920;8.616;2023-03-02T02:56:48;49.75;;;29.20;;
35715;SDS011;21840;44.920;8.616;2023-03-02T02:59:17;48.67;;;30.67;;
35715;SDS011;21840;44.920;8.616;2023-03-02T03:01:47;48.17;;;28.98;;
35715;SDS011;21840;44.920;8.616;2023-03-02T03:04:15;53.65;;;30.77;;
35715;SDS011;21840;44.920;8.616;2023-03-02T03:09:21;46.35;;;27.70;;
35715;SDS011;21840;44.920;8.616;2023-03-02T03:11:55;46.55;;;28.98;;
35715;SDS011;21840;44.920;8.616;2023-03-02T03:14:41;46.95;;;28.70;;
35715;SDS011;21840;44.920;8.616;2023-03-02T03:17:09;50.28;;;29.20;;
35715;SDS011;21840;44.920;8.616;2023-03-02T03:19:43;48.65;;;29.05;;
35715;SDS011;21840;44.920;8.616;2023-03-02T03:22:10;46.75;;;28.70;;
35715;SDS011;21840;44.920;8.616;2023-03-02T03:24:38;47.05;;;27.42;;
35715;SDS011;21840;44.920;8.616;2023-03-02T03:27:06;49.83;;;28.45;;
35715;SDS011;21840;44.920;8.616;2023-03-02T03:29:37;46.83;;;28.38;;
35715;SDS011;21840;44.920;8.616;2023-03-02T03:32:06;46.78;;;28.00;;
35715;SDS011;21840;44.920;8.616;2023-03-02T03:34:33;45.22;;;27.92;;
35715;SDS011;21840;44.920;8.616;2023-03-02T03:37:10;50.30;;;28.58;;
35715;SDS011;21840;44.920;8.616;2023-03-02T03:39:38;49.58;;;28.88;;
35715;SDS011;21840;44.920;8.616;2023-03-02T03:42:04;49.90;;;28.55;;
35715;SDS011;21840;44.920;8.616;2023-03-02T03:44:31;51.10;;;30.77;;
35715;SDS011;21840;44.920;8.616;2023-03-02T03:46:57;52.53;;;29.50;;
35715;SDS011;21840;44.920;8.616;2023-03-02T03:49:23;51.05;;;29.45;;
35715;SDS011;21840;44.920;8.616;2023-03-02T03:51:49;51.58;;;28.50;;
35715;SDS011;21840;44.920;8.616;2023-03-02T03:54:15;51.08;;;29.52;;
35715;SDS011;21840;44.920;8.616;2023-03-02T03:56:43;51.90;;;28.70;;
35715;SDS011;21840;44.920;8.616;2023-03-02T03:59:13;49.30;;;28.50;;
35715;SDS011;21840;44.920;8.616;2023-03-02T04:01:48;48.35;;;28.08;;
35715;SDS011;21840;44.920;8.616;2023-03-02T04:04:18;55.08;;;29.75;;
35715;SDS011;21840;44.920;8.616;2023-03-02T04:06:49;48.70;;;27.90;;
35715;SDS011;21840;44.920;8.616;2023-03-02T04:09:15;53.40;;;29.83;;
35715;SDS011;21840;44.920;8.616;2023-03-02T04:11:45;47.80;;;27.98;;
35715;SDS011;21840;44.920;8.616;2023-03-02T04:14:13;49.60;;;27.40;;
35715;SDS011;21840;44.920;8.616;2023-03-02T04:16:39;50.33;;;28.58;;
35715;SDS011;21840;44.920;8.616;2023-03-02T04:19:07;46.38;;;26.90;;
35715;SDS011;21840;44.920;8.616;2023-03-02T04:21:35;44.55;;;26.65;;
35715;SDS011;21840;44.920;8.616;2023-03-02T04:24:02;51.65;;;28.67;;
35715;SDS011;21840;44.920;8.616;2023-03-02T04:26:28;51.00;;;29.55;;
35715;SDS011;21840;44.920;8.616;2023-03-02T04:28:53;50.00;;;27.90;;
35715;SDS011;21840;44.920;8.616;2023-03-02T04:31:20;53.60;;;29.13;;
35715;SDS011;21840;44.920;8.616;2023-03-02T04:33:46;49.53;;;28.40;;
35715;SDS011;21840;44.920;8.616;2023-03-02T04:36:12;50.30;;;28.35;;
35715;SDS011;21840;44.920;8.616;2023-03-02T04:38:37;47.97;;;28.15;;
35715;SDS011;21840;44.920;8.616;2023-03-02T04:41:03;49.78;;;28.67;;
35715;SDS011;21840;44.920;8.616;2023-03-02T04:43:28;50.08;;;27.98;;
35715;SDS011;21840;44.920;8.616;2023-03-02T04:45:54;53.45;;;29.17;;
35715;SDS011;21840;44.920;8.616;2023-03-02T04:48:20;49.83;;;28.88;;
35715;SDS011;21840;44.920;8.616;2023-03-02T04:50:46;55.78;;;30.67;;
35715;SDS011;21840;44.920;8.616;2023-03-02T04:53:11;54.10;;;30.45;;
35715;SDS011;21840;44.920;8.616;2023-03-02T04:55:37;54.13;;;31.05;;
35715;SDS011;21840;44.920;8.616;2023-03-02T04:58:03;52.80;;;28.70;;
35715;SDS011;21840;44.920;8.616;2023-03-02T05:00:29;52.92;;;28.80;;
35715;SDS011;21840;44.920;8.616;2023-03-02T05:02:58;55.20;;;30.48;;
35715;SDS011;21840;44.920;8.616;2023-03-02T05:05:23;53.67;;;29.83;;
35715;SDS011;21840;44.920;8.616;2023-03-02T05:07:50;53.08;;;30.13;;
35715;SDS011;21840;44.920;8.616;2023-03-02T05:10:16;50.85;;;28.15;;
35715;SDS011;21840;44.920;8.616;2023-03-02T05:12:43;49.22;;;27.58;;
35715;SDS011;21840;44.920;8.616;2023-03-02T05:15:38;51.63;;;28.80;;
35715;SDS011;21840;44.920;8.616;2023-03-02T05:18:06;51.33;;;28.90;;
35715;SDS011;21840;44.920;8.616;2023-03-02T05:20:34;54.03;;;30.42;;
35715;SDS011;21840;44.920;8.616;2023-03-02T05:23:00;51.65;;;28.95;;
35715;SDS011;21840;44.920;8.616;2023-03-02T05:25:29;53.40;;;29.77;;
35715;SDS011;21840;44.920;8.616;2023-03-02T05:27:56;50.95;;;29.33;;
35715;SDS011;21840;44.920;8.616;2023-03-02T05:30:22;50.33;;;29.00;;
35715;SDS011;21840;44.920;8.616;2023-03-02T05:32:48;49.10;;;27.98;;
35715;SDS011;21840;44.920;8.616;2023-03-02T05:35:15;51.47;;;29.65;;
35715;SDS011;21840;44.920;8.616;2023-03-02T05:37:41;50.88;;;28.23;;
35715;SDS011;21840;44.920;8.616;2023-03-02T05:40:09;50.10;;;28.80;;
35715;SDS011;21840;44.920;8.616;2023-03-02T05:42:40;49.58;;;28.23;;
35715;SDS011;21840;44.920;8.616;2023-03-02T05:45:07;53.00;;;29.42;;
35715;SDS011;21840;44.920;8.616;2023-03-02T05:47:37;49.42;;;28.65;;
35715;SDS011;21840;44.920;8.616;2023-03-02T05:50:03;49.33;;;28.48;;
35715;SDS011;21840;44.920;8.616;2023-03-02T05:52:29;50.58;;;28.50;;
35715;SDS011;21840;44.920;8.616;2023-03-02T05:54:54;51.97;;;29.50;;
35715;SDS011;21840;44.920;8.616;2023-03-02T05:57:19;50.70;;;28.75;;
35715;SDS011;21840;44.920;8.616;2023-03-02T05:59:45;52.70;;;29.27;;
35715;SDS011;21840;44.920;8.616;2023-03-02T06:02:11;50.70;;;29.42;;
35715;SDS011;21840;44.920;8.616;2023-03-02T06:04:37;51.03;;;28.05;;
35715;SDS011;21840;44.920;8.616;2023-03-02T06:07:07;56.10;;;29.83;;
35715;SDS011;21840;44.920;8.616;2023-03-02T06:09:35;50.17;;;28.40;;
35715;SDS011;21840;44.920;8.616;2023-03-02T06:12:04;46.88;;;27.83;;
35715;SDS011;21840;44.920;8.616;2023-03-02T06:14:31;48.85;;;29.23;;
35715;SDS011;21840;44.920;8.616;2023-03-02T06:16:56;50.85;;;29.00;;
35715;SDS011;21840;44.920;8.616;2023-03-02T06:19:21;48.25;;;28.15;;
35715;SDS011;21840;44.920;8.616;2023-03-02T06:21:47;52.83;;;29.35;;
35715;SDS011;21840;44.920;8.616;2023-03-02T06:24:12;50.65;;;29.25;;
35715;SDS011;21840;44.920;8.616;2023-03-02T06:26:38;50.03;;;28.70;;
35715;SDS011;21840;44.920;8.616;2023-03-02T06:29:03;50.40;;;27.05;;
35715;SDS011;21840;44.920;8.616;2023-03-02T06:31:30;49.38;;;29.55;;
35715;SDS011;21840;44.920;8.616;2023-03-02T06:33:56;54.65;;;29.27;;
35715;SDS011;21840;44.920;8.616;2023-03-02T06:36:21;50.85;;;28.73;;
35715;SDS011;21840;44.920;8.616;2023-03-02T06:38:47;52.35;;;28.85;;
35715;SDS011;21840;44.920;8.616;2023-03-02T06:41:12;50.67;;;29.33;;
35715;SDS011;21840;44.920;8.616;2023-03-02T06:43:38;55.80;;;28.85;;
35715;SDS011;21840;44.920;8.616;2023-03-02T06:46:04;50.05;;;28.80;;
35715;SDS011;21840;44.920;8.616;2023-03-02T06:48:29;59.10;;;28.35;;
35715;SDS011;21840;44.920;8.616;2023-03-02T06:50:55;50.13;;;28.58;;
35715;SDS011;21840;44.920;8.616;2023-03-02T06:53:20;48.80;;;27.80;;
35715;SDS011;21840;44.920;8.616;2023-03-02T06:55:47;49.55;;;29.42;;
35715;SDS011;21840;44.920;8.616;2023-03-02T06:58:13;47.08;;;27.13;;
35715;SDS011;21840;44.920;8.616;2023-03-02T07:00:39;53.70;;;27.63;;
35715;SDS011;21840;44.920;8.616;2023-03-02T07:03:04;47.05;;;28.02;;
35715;SDS011;21840;44.920;8.616;2023-03-02T07:05:30;45.05;;;27.38;;
35715;SDS011;21840;44.920;8.616;2023-03-02T07:08:00;48.25;;;27.63;;
35715;SDS011;21840;44.920;8.616;2023-03-02T07:10:25;48.67;;;27.67;;
35715;SDS011;21840;44.920;8.616;2023-03-02T07:12:51;51.70;;;28.02;;
35715;SDS011;21840;44.920;8.616;2023-03-02T07:15:18;48.22;;;27.83;;
35715;SDS011;21840;44.920;8.616;2023-03-02T07:17:43;47.00;;;26.25;;
35715;SDS011;21840;44.920;8.616;2023-03-02T07:20:13;44.83;;;25.92;;
35715;SDS011;21840;44.920;8.616;2023-03-02T07:22:41;43.60;;;26.43;;
35715;SDS011;21840;44.920;8.616;2023-03-02T07:25:07;45.33;;;25.25;;
35715;SDS011;21840;44.920;8.616;2023-03-02T07:27:33;43.63;;;24.92;;
35715;SDS011;21840;44.920;8.616;2023-03-02T07:29:59;49.67;;;25.02;;
35715;SDS011;21840;44.920;8.616;2023-03-02T07:32:25;51.75;;;25.90;;
35715;SDS011;21840;44.920;8.616;2023-03-02T07:34:51;48.92;;;25.50;;
35715;SDS011;21840;44.920;8.616;2023-03-02T07:37:17;43.10;;;26.15;;
35715;SDS011;21840;44.920;8.616;2023-03-02T07:39:42;52.22;;;25.75;;
35715;SDS011;21840;44.920;8.616;2023-03-02T07:42:09;45.78;;;22.33;;
35715;SDS011;21840;44.920;8.616;2023-03-02T07:44:37;38.70;;;21.27;;
35715;SDS011;21840;44.920;8.616;2023-03-02T07:47:03;37.92;;;21.90;;
35715;SDS011;21840;44.920;8.616;2023-03-02T07:49:28;39.45;;;21.70;;
35715;SDS011;21840;44.920;8.616;2023-03-02T07:51:54;31.83;;;19.70;;
35715;SDS011;21840;44.920;8.616;2023-03-02T07:54:19;37.45;;;21.05;;
35715;SDS011;21840;44.920;8.616;2023-03-02T07:56:45;40.13;;;20.23;;
35715;SDS011;21840;44.920;8.616;2023-03-02T07:59:11;31.10;;;19.85;;
35715;SDS011;21840;44.920;8.616;2023-03-02T08:01:36;34.95;;;18.80;;
35715;SDS011;21840;44.920;8.616;2023-03-02T08:04:02;34.00;;;18.83;;
35715;SDS011;21840;44.920;8.616;2023-03-02T08:06:28;31.15;;;18.63;;
35715;SDS011;21840;44.920;8.616;2023-03-02T08:08:53;28.77;;;17.88;;
35715;SDS011;21840;44.920;8.616;2023-03-02T08:11:19;28.40;;;18.05;;
35715;SDS011;21840;44.920;8.616;2023-03-02T08:13:44;34.35;;;18.25;;
35715;SDS011;21840;44.920;8.616;2023-03-02T08:16:11;30.10;;;18.23;;
35715;SDS011;21840;44.920;8.616;2023-03-02T08:18:38;28.00;;;17.85;;
35715;SDS011;21840;44.920;8.616;2023-03-02T08:21:09;29.63;;;16.92;;
35715;SDS011;21840;44.920;8.616;2023-03-02T08:23:36;31.33;;;17.95;;
35715;SDS011;21840;44.920;8.616;2023-03-02T08:26:02;26.98;;;16.42;;
35715;SDS011;21840;44.920;8.616;2023-03-02T08:28:27;26.90;;;15.55;;
35715;SDS011;21840;44.920;8.616;2023-03-02T08:30:53;27.70;;;14.90;;
35715;SDS011;21840;44.920;8.616;2023-03-02T08:33:22;28.50;;;16.23;;
35715;SDS011;21840;44.920;8.616;2023-03-02T08:38:23;25.90;;;15.25;;
35715;SDS011;21840;44.920;8.616;2023-03-02T08:40:50;24.63;;;15.30;;
35715;SDS011;21840;44.920;8.616;2023-03-02T08:43:16;21.98;;;14.18;;
35715;SDS011;21840;44.920;8.616;2023-03-02T08:45:42;25.50;;;14.77;;
35715;SDS011;21840;44.920;8.616;2023-03-02T08:48:08;29.05;;;15.18;;
35715;SDS011;21840;44.920;8.616;2023-03-02T08:50:33;26.65;;;15.10;;
35715;SDS011;21840;44.920;8.616;2023-03-02T08:52:59;25.30;;;14.95;;
35715;SDS011;21840;44.920;8.616;2023-03-02T08:55:24;25.70;;;14.35;;
35715;SDS011;21840;44.920;8.616;2023-03-02T08:57:50;22.52;;;13.88;;
35715;SDS011;21840;44.920;8.616;2023-03-02T09:00:15;26.30;;;13.45;;
35715;SDS011;21840;44.920;8.616;2023-03-02T09:02:42;27.98;;;14.20;;
35715;SDS011;21840;44.920;8.616;2023-03-02T09:05:07;23.77;;;14.38;;
35715;SDS011;21840;44.920;8.616;2023-03-02T09:07:33;21.40;;;13.65;;
35715;SDS011;21840;44.920;8.616;2023-03-02T09:09:58;20.40;;;13.48;;
35715;SDS011;21840;44.920;8.616;2023-03-02T09:12:24;20.55;;;13.82;;
35715;SDS011;21840;44.920;8.616;2023-03-02T09:14:49;22.95;;;12.63;;
35715;SDS011;21840;44.920;8.616;2023-03-02T09:17:15;25.00;;;13.40;;
35715;SDS011;21840;44.920;8.616;2023-03-02T09:19:41;24.23;;;13.43;;
35715;SDS011;21840;44.920;8.616;2023-03-02T09:22:07;19.80;;;12.13;;
35715;SDS011;21840;44.920;8.616;2023-03-02T09:24:33;22.17;;;13.10;;
35715;SDS011;21840;44.920;8.616;2023-03-02T09:27:00;19.38;;;12.55;;
35715;SDS011;21840;44.920;8.616;2023-03-02T09:29:25;18.67;;;11.48;;
35715;SDS011;21840;44.920;8.616;2023-03-02T09:31:51;19.77;;;11.95;;
35715;SDS011;21840;44.920;8.616;2023-03-02T09:34:16;18.80;;;11.75;;
35715;SDS011;21840;44.920;8.616;2023-03-02T09:36:42;17.67;;;11.43;;
35715;SDS011;21840;44.920;8.616;2023-03-02T09:39:07;16.27;;;10.80;;
35715;SDS011;21840;44.920;8.616;2023-03-02T09:47:26;19.35;;;11.27;;
35715;SDS011;21840;44.920;8.616;2023-03-02T09:50:04;17.92;;;10.93;;
35715;SDS011;21840;44.920;8.616;2023-03-02T09:55:27;15.98;;;10.57;;
35715;SDS011;21840;44.920;8.616;2023-03-02T09:57:58;16.55;;;10.52;;
35715;SDS011;21840;44.920;8.616;2023-03-02T10:00:28;14.75;;;10.05;;
35715;SDS011;21840;44.920;8.616;2023-03-02T10:02:57;20.88;;;9.70;;
35715;SDS011;21840;44.920;8.616;2023-03-02T10:07:53;17.65;;;10.32;;
35715;SDS011;21840;44.920;8.616;2023-03-02T10:10:56;14.60;;;9.55;;
35715;SDS011;21840;44.920;8.616;2023-03-02T10:13:31;13.43;;;9.95;;
35715;SDS011;21840;44.920;8.616;2023-03-02T10:16:11;14.00;;;9.85;;
35715;SDS011;21840;44.920;8.616;2023-03-02T10:18:54;16.52;;;9.90;;
35715;SDS011;21840;44.920;8.616;2023-03-02T10:21:28;14.48;;;9.90;;
35715;SDS011;21840;44.920;8.616;2023-03-02T10:24:02;13.90;;;9.85;;
35715;SDS011;21840;44.920;8.616;2023-03-02T10:26:39;13.93;;;9.10;;
35715;SDS011;21840;44.920;8.616;2023-03-02T10:31:39;19.17;;;12.75;;
35715;SDS011;21840;44.920;8.616;2023-03-02T10:34:07;17.25;;;12.60;;
35715;SDS011;21840;44.920;8.616;2023-03-02T10:36:39;17.75;;;13.18;;
35715;SDS011;21840;44.920;8.616;2023-03-02T10:39:14;19.92;;;13.25;;
35715;SDS011;21840;44.920;8.616;2023-03-02T10:41:45;19.75;;;12.90;;
35715;SDS011;21840;44.920;8.616;2023-03-02T10:46:49;16.08;;;12.20;;
35715;SDS011;21840;44.920;8.616;2023-03-02T10:51:55;16.48;;;11.60;;
35715;SDS011;21840;44.920;8.616;2023-03-02T10:54:20;19.70;;;11.93;;
35715;SDS011;21840;44.920;8.616;2023-03-02T10:56:47;17.60;;;12.05;;
35715;SDS011;21840;44.920;8.616;2023-03-02T11:02:00;19.10;;;13.10;;
35715;SDS011;21840;44.920;8.616;2023-03-02T11:04:28;16.55;;;12.98;;
35715;SDS011;21840;44.920;8.616;2023-03-02T11:06:57;17.55;;;12.50;;
35715;SDS011;21840;44.920;8.616;2023-03-02T11:09:32;18.88;;;13.20;;
35715;SDS011;21840;44.920;8.616;2023-03-02T11:11:57;17.85;;;12.57;;
35715;SDS011;21840;44.920;8.616;2023-03-02T11:14:25;15.98;;;11.90;;
35715;SDS011;21840;44.920;8.616;2023-03-02T11:16:50;18.17;;;12.65;;
35715;SDS011;21840;44.920;8.616;2023-03-02T11:19:19;19.60;;;12.30;;
35715;SDS011;21840;44.920;8.616;2023-03-02T11:22:12;19.35;;;12.48;;
35715;SDS011;21840;44.920;8.616;2023-03-02T11:27:28;18.10;;;11.70;;
35715;SDS011;21840;44.920;8.616;2023-03-02T11:29:59;18.10;;;13.05;;
35715;SDS011;21840;44.920;8.616;2023-03-02T11:32:46;17.52;;;11.60;;
35715;SDS011;21840;44.920;8.616;2023-03-02T11:37:53;15.15;;;9.77;;
35715;SDS011;21840;44.920;8.616;2023-03-02T11:40:22;16.38;;;9.95;;
35715;SDS011;21840;44.920;8.616;2023-03-02T11:42:55;23.23;;;10.63;;
35715;SDS011;21840;44.920;8.616;2023-03-02T11:45:23;11.35;;;8.77;;
35715;SDS011;21840;44.920;8.616;2023-03-02T11:47:54;16.15;;;10.13;;
35715;SDS011;21840;44.920;8.616;2023-03-02T11:50:23;14.20;;;9.00;;
35715;SDS011;21840;44.920;8.616;2023-03-02T11:52:59;13.80;;;8.05;;
35715;SDS011;21840;44.920;8.616;2023-03-02T11:55:30;14.85;;;10.57;;
35715;SDS011;21840;44.920;8.616;2023-03-02T11:57:58;15.23;;;10.68;;
35715;SDS011;21840;44.920;8.616;2023-03-02T12:02:59;12.48;;;8.88;;
35715;SDS011;21840;44.920;8.616;2023-03-02T12:05:28;13.90;;;9.55;;
35715;SDS011;21840;44.920;8.616;2023-03-02T12:07:57;13.77;;;9.10;;
35715;SDS011;21840;44.920;8.616;2023-03-02T12:10:36;16.27;;;8.77;;
35715;SDS011;21840;44.920;8.616;2023-03-02T12:13:13;12.82;;;9.30;;
35715;SDS011;21840;44.920;8.616;2023-03-02T12:15:43;14.80;;;10.23;;
35715;SDS011;21840;44.920;8.616;2023-03-02T12:18:30;14.85;;;9.80;;
35715;SDS011;21840;44.920;8.616;2023-03-02T12:21:08;12.82;;;8.82;;
35715;SDS011;21840;44.920;8.616;2023-03-02T12:23:39;12.30;;;8.82;;
35715;SDS011;21840;44.920;8.616;2023-03-02T12:28:53;10.27;;;7.45;;
35715;SDS011;21840;44.920;8.616;2023-03-02T12:36:48;9.43;;;7.07;;
35715;SDS011;21840;44.920;8.616;2023-03-02T12:44:44;9.27;;;6.55;;
35715;SDS011;21840;44.920;8.616;2023-03-02T12:47:25;21.05;;;7.43;;
35715;SDS011;21840;44.920;8.616;2023-03-02T12:50:00;15.13;;;7.05;;
35715;SDS011;21840;44.920;8.616;2023-03-02T12:52:32;10.40;;;6.63;;
35715;SDS011;21840;44.920;8.616;2023-03-02T12:57:29;12.68;;;8.70;;
35715;SDS011;21840;44.920;8.616;2023-03-02T12:59:56;12.95;;;7.60;;
35715;SDS011;21840;44.920;8.616;2023-03-02T13:02:26;12.02;;;8.05;;
35715;SDS011;21840;44.920;8.616;2023-03-02T13:07:26;11.32;;;7.60;;
35715;SDS011;21840;44.920;8.616;2023-03-02T13:09:58;14.45;;;9.35;;
35715;SDS011;21840;44.920;8.616;2023-03-02T13:12:27;10.73;;;7.97;;
35715;SDS011;21840;44.920;8.616;2023-03-02T13:14:54;11.95;;;8.02;;
35715;SDS011;21840;44.920;8.616;2023-03-02T13:17:24;13.98;;;8.60;;
35715;SDS011;21840;44.920;8.616;2023-03-02T13:19:57;17.38;;;8.27;;
35715;SDS011;21840;44.920;8.616;2023-03-02T13:22:24;14.35;;;8.15;;
35715;SDS011;21840;44.920;8.616;2023-03-02T13:24:58;12.95;;;8.27;;
35715;SDS011;21840;44.920;8.616;2023-03-02T13:27:26;9.60;;;7.43;;
35715;SDS011;21840;44.920;8.616;2023-03-02T13:29:53;9.90;;;8.25;;
35715;SDS011;21840;44.920;8.616;2023-03-02T13:32:23;13.82;;;7.57;;
35715;SDS011;21840;44.920;8.616;2023-03-02T13:34:51;16.10;;;7.95;;
35715;SDS011;21840;44.920;8.616;2023-03-02T13:42:50;15.20;;;9.27;;
35715;SDS011;21840;44.920;8.616;2023-03-02T13:45:24;19.92;;;10.25;;
35715;SDS011;21840;44.920;8.616;2023-03-02T13:47:57;36.10;;;10.95;;
35715;SDS011;21840;44.920;8.616;2023-03-02T13:52:56;13.93;;;8.13;;
35715;SDS011;21840;44.920;8.616;2023-03-02T13:55:24;13.43;;;9.05;;
35715;SDS011;21840;44.920;8.616;2023-03-02T13:57:51;12.13;;;8.38;;
35715;SDS011;21840;44.920;8.616;2023-03-02T14:00:19;11.80;;;8.70;;
35715;SDS011;21840;44.920;8.616;2023-03-02T14:02:47;12.40;;;8.07;;
35715;SDS011;21840;44.920;8.616;2023-03-02T14:05:22;12.70;;;8.13;;
35715;SDS011;21840;44.920;8.616;2023-03-02T14:07:50;10.77;;;8.05;;
35715;SDS011;21840;44.920;8.616;2023-03-02T14:10:17;13.15;;;9.07;;
35715;SDS011;21840;44.920;8.616;2023-03-02T14:13:04;14.82;;;8.15;;
35715;SDS011;21840;44.920;8.616;2023-03-02T14:15:39;11.65;;;8.63;;
35715;SDS011;21840;44.920;8.616;2023-03-02T14:18:13;11.38;;;8.32;;
35715;SDS011;21840;44.920;8.616;2023-03-02T14:20:47;17.88;;;9.52;;
35715;SDS011;21840;44.920;8.616;2023-03-02T14:23:13;15.98;;;9.00;;
35715;SDS011;21840;44.920;8.616;2023-03-02T14:25:38;10.82;;;8.30;;
35715;SDS011;21840;44.920;8.616;2023-03-02T14:28:04;15.00;;;9.65;;
35715;SDS011;21840;44.920;8.616;2023-03-02T14:30:29;17.25;;;8.98;;
35715;SDS011;21840;44.920;8.616;2023-03-02T14:32:55;10.52;;;8.05;;
35715;SDS011;21840;44.920;8.616;2023-03-02T14:35:20;14.05;;;9.60;;
35715;SDS011;21840;44.920;8.616;2023-03-02T14:37:48;13.60;;;9.15;;
35715;SDS011;21840;44.920;8.616;2023-03-02T14:40:20;11.55;;;9.27;;
35715;SDS011;21840;44.920;8.616;2023-03-02T14:42:50;13.43;;;9.05;;
35715;SDS011;21840;44.920;8.616;2023-03-02T14:45:17;22.75;;;11.32;;
35715;SDS011;21840;44.920;8.616;2023-03-02T14:47:43;13.32;;;9.70;;
35715;SDS011;21840;44.920;8.616;2023-03-02T14:50:09;13.75;;;9.93;;
35715;SDS011;21840;44.920;8.616;2023-03-02T14:52:39;12.30;;;9.48;;
35715;SDS011;21840;44.920;8.616;2023-03-02T14:55:13;27.02;;;11.48;;
35715;SDS011;21840;44.920;8.616;2023-03-02T14:57:43;21.30;;;10.75;;
35715;SDS011;21840;44.920;8.616;2023-03-02T15:00:11;13.68;;;9.85;;
35715;SDS011;21840;44.920;8.616;2023-03-02T15:02:39;19.23;;;10.77;;
35715;SDS011;21840;44.920;8.616;2023-03-02T15:05:05;29.17;;;11.80;;
35715;SDS011;21840;44.920;8.616;2023-03-02T15:07:30;20.52;;;11.05;;
35715;SDS011;21840;44.920;8.616;2023-03-02T15:09:56;54.72;;;15.40;;
35715;SDS011;21840;44.920;8.616;2023-03-02T15:12:22;15.77;;;10.05;;
35715;SDS011;21840;44.920;8.616;2023-03-02T15:14:48;15.93;;;10.65;;
35715;SDS011;21840;44.920;8.616;2023-03-02T15:17:13;18.02;;;10.50;;
35715;SDS011;21840;44.920;8.616;2023-03-02T15:19:39;23.17;;;10.68;;
35715;SDS011;21840;44.920;8.616;2023-03-02T15:22:04;19.35;;;10.65;;
35715;SDS011;21840;44.920;8.616;2023-03-02T15:24:30;15.40;;;10.05;;
35715;SDS011;21840;44.920;8.616;2023-03-02T15:26:55;15.13;;;9.73;;
35715;SDS011;21840;44.920;8.616;2023-03-02T15:29:21;20.13;;;11.05;;
35715;SDS011;21840;44.920;8.616;2023-03-02T15:31:46;61.55;;;13.93;;
35715;SDS011;21840;44.920;8.616;2023-03-02T15:34:12;20.05;;;10.73;;
35715;SDS011;21840;44.920;8.616;2023-03-02T15:36:38;17.00;;;11.15;;
35715;SDS011;21840;44.920;8.616;2023-03-02T15:39:04;15.95;;;11.38;;
35715;SDS011;21840;44.920;8.616;2023-03-02T15:41:33;16.73;;;10.52;;